Time;durP1;ratioP1;P1;durP2;ratioP2;P2;SDS_P1;SDS_P2;PMS_P1;PMS_P2;Temp;Humidity;BMP_temperature;BMP_pressure;BME280_temperature;BME280_humidity;BME280_pressure;Samples;Min_cycle;Max_cycle;Signal;HPM_P1;HPM_P2
2023/05/25 06:50:32;;;;;;;10.77;4.40;;;;;;;12.87;53.83;100467.22;1087000;54;20109;-85
2023/05/25 06:51:37;;;;;;;12.30;4.32;;;;;;;13.04;53.39;100464.72;1087211;46;20046;-83
2023/05/25 06:52:45;;;;;;;10.95;4.50;;;;;;;13.21;53.17;100461.25;1087027;54;20034;-84
2023/05/25 06:53:49;;;;;;;13.35;4.88;;;;;;;13.23;53.19;100469.13;1087441;54;20046;-84
2023/05/25 06:54:50;;;;;;;9.90;3.55;;;;;;;13.46;52.82;100456.13;1087755;46;20046;-86
2023/05/25 06:55:54;;;;;;;13.10;4.32;;;;;;;13.36;52.94;100458.88;1087416;47;20031;-85
2023/05/25 06:56:58;;;;;;;10.50;4.35;;;;;;;13.32;53.11;100457.50;1087621;54;20038;-85
2023/05/25 06:57:59;;;;;;;13.85;4.53;;;;;;;13.38;52.84;100461.41;1087371;47;20022;-85
2023/05/25 06:59:03;;;;;;;13.77;4.05;;;;;;;13.40;52.94;100460.28;1087490;54;20031;-84
2023/05/25 07:00:08;;;;;;;11.63;4.18;;;;;;;13.55;52.66;100467.81;1087274;54;21122;-86
2023/05/25 07:01:10;;;;;;;9.93;4.53;;;;;;;13.75;52.25;100459.56;1089477;39;20847;-86
2023/05/25 07:02:15;;;;;;;8.60;3.58;;;;;;;13.89;51.78;100470.59;1087890;39;20725;-85
2023/05/25 07:22:28;;;;;;;14.55;5.10;;;;;;;14.39;50.53;100438.66;1087625;54;20173;-85
2023/05/25 07:23:33;;;;;;;10.57;4.53;;;;;;;14.53;50.14;100447.13;1087680;46;20110;-88
2023/05/25 07:24:34;;;;;;;11.18;4.15;;;;;;;14.70;49.76;100437.31;1087270;54;20046;-84
2023/05/25 07:25:40;;;;;;;11.43;4.38;;;;;;;14.67;49.94;100433.09;1087396;54;20035;-86
2023/05/25 07:26:43;;;;;;;13.27;4.25;;;;;;;14.58;50.03;100437.59;1087216;47;20026;-87
2023/05/25 07:27:53;;;;;;;10.88;4.68;;;;;;;14.76;49.71;100440.19;1087023;47;20046;-86
2023/05/25 07:28:59;;;;;;;11.38;4.00;;;;;;;15.03;49.33;100440.94;1087157;46;20047;-85
2023/05/25 07:30:12;;;;;;;11.10;4.85;;;;;;;15.16;48.94;100442.34;1087376;47;20685;-89
2023/05/25 07:31:18;;;;;;;9.65;3.45;;;;;;;15.46;48.17;100437.31;1087248;47;20026;-85
2023/05/25 07:32:28;;;;;;;12.82;4.40;;;;;;;15.55;48.45;100439.03;1087619;54;20057;-87
2023/05/25 07:33:37;;;;;;;;;;;;;;;15.60;47.83;100442.03;1087818;54;20014;-87
2023/05/25 07:34:43;;;;;;;12.98;4.53;;;;;;;15.43;48.31;100433.13;1087374;46;19938;-86
2023/05/25 07:35:53;;;;;;;10.13;4.75;;;;;;;15.38;48.46;100439.00;1087360;54;20115;-85
2023/05/25 07:37:01;;;;;;;14.45;4.70;;;;;;;15.38;48.36;100428.25;1087358;54;20035;-84
2023/05/25 07:38:14;;;;;;;15.05;5.53;;;;;;;15.26;48.70;100441.16;1087167;54;20041;-84
2023/05/25 07:39:20;;;;;;;12.88;5.13;;;;;;;15.20;48.92;100431.06;1087242;46;20026;-84
2023/05/25 07:40:31;;;;;;;13.15;4.90;;;;;;;15.16;48.70;100434.25;1087015;47;20026;-84
2023/05/25 07:41:38;;;;;;;10.32;4.82;;;;;;;15.20;48.81;100430.22;1087625;54;20030;-86
2023/05/25 07:42:47;;;;;;;13.85;5.25;;;;;;;15.11;48.82;100437.44;1087339;46;20034;-83
2023/05/25 07:43:54;;;;;;;13.70;5.03;;;;;;;15.24;48.81;100436.97;1087152;47;20022;-83
2023/05/25 07:45:06;;;;;;;13.57;5.07;;;;;;;15.48;48.49;100436.16;1087242;54;20031;-83
2023/05/25 07:46:16;;;;;;;11.52;5.40;;;;;;;15.54;48.17;100434.63;1087305;47;20756;-85
2023/05/25 07:47:23;;;;;;;14.02;5.03;;;;;;;15.81;47.95;100435.28;1087219;46;20083;-85
2023/05/25 07:48:33;;;;;;;11.68;4.43;;;;;;;15.91;47.62;100433.31;1087056;54;20158;-85
2023/05/25 07:49:38;;;;;;;12.48;4.20;;;;;;;15.88;47.73;100433.63;1087120;47;20057;-85
2023/05/25 07:50:50;;;;;;;12.93;5.00;;;;;;;15.83;47.55;100433.28;1087091;54;20026;-85
2023/05/25 07:52:02;;;;;;;12.32;4.65;;;;;;;16.12;47.38;100434.63;1087067;46;20022;-83
2023/05/25 07:53:10;;;;;;;13.52;4.93;;;;;;;16.26;46.98;100436.59;1086995;54;20181;-82
2023/05/25 07:54:18;;;;;;;11.00;5.35;;;;;;;16.15;46.96;100435.13;1087293;46;20053;-86
2023/05/25 07:55:22;;;;;;;13.02;5.07;;;;;;;15.98;47.60;100438.88;1087201;54;20057;-84
2023/05/25 07:56:30;;;;;;;14.20;4.80;;;;;;;16.13;47.27;100433.63;1087374;54;20061;-84
2023/05/25 07:57:35;;;;;;;11.10;5.28;;;;;;;16.01;47.11;100433.97;1087463;54;20042;-86
2023/05/25 07:58:43;;;;;;;12.02;4.47;;;;;;;16.16;47.17;100435.94;1087448;46;20042;-83
2023/05/25 07:59:51;;;;;;;11.82;5.75;;;;;;;16.10;47.33;100431.25;1087246;46;20023;-84
2023/05/25 08:00:59;;;;;;;13.02;5.13;;;;;;;15.97;47.68;100437.16;1087320;54;20036;-83
2023/05/25 13:09:59;;;;;;;10.45;3.75;;;;;;;22.29;37.00;100369.69;1071720;54;20077;31
2023/05/25 14:19:19;;;;;;;10.10;3.92;;;;;;;23.03;35.42;100336.66;1086598;54;20034;-85
2023/05/25 14:20:25;;;;;;;8.90;4.10;;;;;;;23.27;35.26;100334.19;1087678;54;20045;-85
2023/05/25 14:21:39;;;;;;;7.13;3.00;;;;;;;23.45;34.73;100325.25;1087347;47;20034;-85
2023/05/25 14:24:57;;;;;;;6.65;3.22;;;;;;;24.28;33.86;100326.72;1089497;39;21175;-84
2023/05/25 14:26:02;;;;;;;8.68;3.20;;;;;;;24.34;33.42;100330.41;1087684;47;20030;-83
2023/05/25 14:27:12;;;;;;;6.68;3.85;;;;;;;24.75;33.31;100323.38;1087997;47;20014;-84
2023/05/25 14:28:21;;;;;;;6.22;2.95;;;;;;;25.19;32.85;100322.31;1087857;47;20111;-84
2023/05/25 14:30:50;;;;;;;8.20;3.20;;;;;;;25.00;32.37;100318.81;1087356;54;20027;-86
2023/05/25 14:31:58;;;;;;;9.25;3.85;;;;;;;24.96;32.46;100321.19;1087791;54;20041;-83
2023/05/25 14:33:12;;;;;;;8.27;3.50;;;;;;;24.91;32.85;100319.16;1087212;47;20774;-85
2023/05/25 14:34:22;;;;;;;6.13;3.45;;;;;;;25.35;31.64;100309.84;1087399;54;20434;-81
2023/05/25 14:36:36;;;;;;;8.85;3.60;;;;;;;25.20;32.01;100316.59;1087198;54;20923;-85
2023/05/25 14:37:50;;;;;;;9.10;3.97;;;;;;;24.49;32.45;100318.25;1087676;54;21058;-85
2023/05/25 14:38:59;;;;;;;9.10;4.03;;;;;;;24.67;32.81;100318.19;1087486;47;20030;-83
2023/05/25 14:40:04;;;;;;;7.03;3.28;;;;;;;24.60;32.89;100314.72;1087556;54;20034;-83
2023/05/25 14:41:21;;;;;;;6.80;3.40;;;;;;;24.94;32.65;100326.03;1087103;47;20336;-83
2023/05/25 14:43:34;;;;;;;7.88;3.20;;;;;;;24.89;32.31;100325.91;1087026;54;20015;-88
2023/05/25 14:44:39;;;;;;;8.45;3.78;;;;;;;24.57;32.63;100323.38;1087633;47;20046;-81
2023/05/25 14:45:52;;;;;;;7.35;3.65;;;;;;;24.70;32.42;100320.50;1087490;47;20027;-84
2023/05/25 14:46:56;;;;;;;9.20;2.97;;;;;;;24.58;32.85;100314.97;1087338;47;20027;-85
2023/05/25 14:49:17;;;;;;;5.82;3.00;;;;;;;25.16;31.95;100322.78;1080664;54;20027;-84
2023/05/25 14:51:26;;;;;;;6.93;3.08;;;;;;;24.67;32.58;100326.41;1087656;54;21036;-84
2023/05/25 14:52:28;;;;;;;9.25;3.95;;;;;;;24.45;32.76;100323.34;1087625;46;20023;-86
2023/05/25 14:54:33;;;;;;;6.22;3.17;;;;;;;24.77;32.36;100325.88;1083510;54;20011;-85
2023/05/25 14:55:49;;;;;;;6.50;3.25;;;;;;;24.90;32.35;100327.59;1087377;47;20026;-83
2023/05/25 14:56:51;;;;;;;6.63;3.00;;;;;;;25.28;31.72;100323.63;1088935;39;20860;-84
2023/05/25 15:00:12;;;;;;;5.88;2.90;;;;;;;25.28;31.27;100336.47;1087122;54;20086;-84
2023/05/25 15:02:18;;;;;;;5.38;3.10;;;;;;;24.96;32.19;100328.56;1087929;54;21180;-85
2023/05/25 15:04:25;;;;;;;8.88;3.67;;;;;;;24.99;31.88;100330.81;1088011;54;20042;-87
2023/05/25 15:05:28;;;;;;;7.57;3.40;;;;;;;24.78;32.22;100333.03;1087880;54;20033;-85
2023/05/25 15:06:32;;;;;;;9.50;3.95;;;;;;;24.87;31.86;100339.84;1087662;47;20034;-85
2023/05/25 15:08:46;;;;;;;7.03;3.13;;;;;;;24.88;32.13;100326.97;1087194;54;20038;-84
2023/05/25 15:10:58;;;;;;;7.63;3.40;;;;;;;24.70;32.48;100333.34;1087969;54;20034;-85
2023/05/25 15:12:00;;;;;;;5.78;3.10;;;;;;;24.45;32.60;100339.72;1087637;47;20039;-85
2023/05/25 15:13:04;;;;;;;6.53;3.88;;;;;;;24.00;33.12;100329.97;1087663;46;20090;-84
2023/05/25 15:14:05;;;;;;;6.43;3.17;;;;;;;23.95;33.28;100329.81;1087968;54;20030;-84
2023/05/25 15:19:05;;;;;;;9.60;4.13;;;;;;;24.24;33.05;100327.41;1088051;54;20010;-86
2023/05/25 15:20:10;;;;;;;7.38;3.05;;;;;;;24.09;33.18;100328.59;1088043;54;20049;-86
2023/05/25 15:21:13;;;;;;;7.97;3.40;;;;;;;23.83;33.81;100336.00;1087643;47;20027;-85
2023/05/25 15:22:17;;;;;;;7.97;3.50;;;;;;;23.93;33.12;100332.75;1087500;47;20026;-83
2023/05/25 15:23:21;;;;;;;6.30;3.38;;;;;;;23.93;33.35;100329.19;1087406;47;20027;-87
2023/05/25 15:24:22;;;;;;;5.63;2.53;;;;;;;24.10;33.29;100326.72;1087693;54;20038;-86
2023/05/25 15:25:30;;;;;;;6.68;3.10;;;;;;;24.20;33.37;100320.72;1087869;54;20038;-86
2023/05/25 15:27:35;;;;;;;6.80;3.50;;;;;;;23.91;33.68;100320.38;1087353;54;20010;-86
2023/05/25 15:28:36;;;;;;;6.82;3.28;;;;;;;23.81;34.01;100320.91;1086710;47;21148;-86
2023/05/25 15:29:40;;;;;;;8.63;3.92;;;;;;;23.56;34.21;100329.97;1087869;54;20035;-87
2023/05/25 15:30:41;;;;;;;6.68;3.05;;;;;;;23.44;34.19;100327.13;1087993;54;20766;-85
2023/05/25 15:31:47;;;;;;;8.25;3.50;;;;;;;23.29;34.58;100319.28;1087886;54;20034;-85
2023/05/25 15:32:51;;;;;;;8.10;3.97;;;;;;;23.30;34.80;100320.13;1087468;47;20103;-85
2023/05/25 15:33:54;;;;;;;8.18;3.22;;;;;;;23.31;34.33;100321.78;1087340;47;20047;-85
2023/05/25 15:35:07;;;;;;;5.32;3.33;;;;;;;23.38;34.47;100317.13;1087399;47;20086;-85
2023/05/25 15:36:09;;;;;;;7.40;3.22;;;;;;;23.29;34.43;100318.44;1087521;47;20023;-85
2023/05/25 15:38:32;;;;;;;6.72;3.72;;;;;;;23.35;34.50;100315.66;1087667;54;20028;-85
2023/05/25 15:39:40;;;;;;;6.22;3.17;;;;;;;23.69;34.24;100318.09;1074759;47;20437;31
2023/05/25 15:42:05;;;;;;;7.60;3.47;;;;;;;23.33;34.28;100316.97;1087883;54;20034;-88
2023/05/25 15:45:41;;;;;;;6.57;3.53;;;;;;;23.32;34.40;100318.00;1087601;54;20026;-86
2023/05/25 15:46:43;;;;;;;9.85;3.38;;;;;;;23.13;34.48;100320.66;1087230;46;20041;-86
2023/05/25 15:47:46;;;;;;;5.60;3.20;;;;;;;23.02;35.17;100321.34;1087423;47;20841;-85
2023/05/25 15:50:12;;;;;;;6.63;3.25;;;;;;;23.23;34.93;100316.63;1085316;54;20321;-87
2023/05/25 15:51:15;;;;;;;7.05;3.40;;;;;;;23.22;34.69;100323.94;1084733;47;20026;31
2023/05/25 15:52:18;;;;;;;5.72;2.90;;;;;;;23.41;34.41;100327.59;1087394;47;20053;-88
2023/05/25 15:53:20;;;;;;;6.68;3.40;;;;;;;23.20;34.71;100315.16;1088000;54;20117;-86
2023/05/25 15:56:45;;;;;;;6.35;3.40;;;;;;;23.19;34.51;100306.16;1087925;54;20023;-85
2023/05/25 15:57:51;;;;;;;6.38;3.50;;;;;;;23.22;34.72;100310.31;1087962;54;20064;-85
2023/05/25 15:58:53;;;;;;;6.38;2.85;;;;;;;23.42;34.48;100315.63;1087738;46;20018;-84
2023/05/25 16:01:01;;;;;;;6.38;2.90;;;;;;;23.64;34.19;100307.84;1079143;54;20026;-88
2023/05/25 16:02:10;;;;;;;6.60;3.00;;;;;;;23.61;33.93;100315.66;1077305;54;20193;-87
2023/05/25 16:04:34;;;;;;;7.25;3.30;;;;;;;23.47;33.85;100310.31;1087753;54;20018;-87
2023/05/25 16:05:40;;;;;;;9.35;3.40;;;;;;;23.42;33.96;100306.59;1087780;46;20079;-86
2023/05/25 16:06:43;;;;;;;8.55;3.05;;;;;;;23.43;34.26;100303.63;1087767;47;20054;-84
2023/05/25 16:08:55;;;;;;;6.60;3.85;;;;;;;23.30;34.50;100304.59;1085101;46;20045;31
2023/05/25 16:15:25;;;;;;;7.90;3.72;;;;;;;23.27;34.57;100309.66;1085510;54;19943;31
2023/05/25 16:17:37;;;;;;;7.00;2.80;;;;;;;23.24;34.82;100307.38;1087628;54;20034;-86
2023/05/25 16:18:41;;;;;;;5.80;3.50;;;;;;;23.08;34.79;100311.47;1088049;54;20116;-85
2023/05/25 16:19:44;;;;;;;5.07;3.10;;;;;;;23.10;35.36;100310.19;1087870;47;20060;-85
2023/05/25 16:20:45;;;;;;;6.95;3.55;;;;;;;23.16;35.11;100309.28;1087567;47;20034;-86
2023/05/25 16:21:49;;;;;;;8.32;3.63;;;;;;;23.03;35.48;100317.56;1087680;54;20038;-85
2023/05/25 16:28:24;;;;;;;8.20;3.58;;;;;;;22.89;35.31;100311.38;1088204;54;20034;-86
2023/05/25 16:29:31;;;;;;;5.68;3.20;;;;;;;23.05;35.25;100315.44;1082227;46;20078;-86
2023/05/25 16:30:46;;;;;;;6.05;3.20;;;;;;;23.15;34.75;100306.78;1081715;54;20194;31
2023/05/25 16:34:51;;;;;;;7.35;3.55;;;;;;;23.12;34.61;100320.84;1085961;54;20030;-86
2023/05/25 16:38:07;;;;;;;6.57;3.30;;;;;;;23.20;34.88;100313.28;1071898;54;20929;-88
2023/05/25 16:41:44;;;;;;;6.88;3.47;;;;;;;23.04;35.27;100314.63;1087251;47;20034;-86
2023/05/25 16:44:26;;;;;;;7.35;3.72;;;;;;;22.89;34.74;100312.19;1088370;54;20027;-84
2023/05/25 16:45:30;;;;;;;6.30;3.20;;;;;;;22.92;35.17;100307.38;1088171;46;20018;-85
2023/05/25 16:49:07;;;;;;;5.93;2.95;;;;;;;22.98;35.07;100304.59;1079074;54;20074;-84
2023/05/25 16:51:17;;;;;;;5.60;3.30;;;;;;;23.15;35.05;100302.16;1072205;54;20058;31
2023/05/25 16:54:36;;;;;;;6.22;3.47;;;;;;;23.09;34.78;100303.06;1087725;54;20053;-86
2023/05/25 16:55:38;;;;;;;7.95;3.85;;;;;;;22.98;35.40;100298.31;1087539;47;20023;-85
2023/05/25 16:56:43;;;;;;;8.55;3.83;;;;;;;22.78;35.25;100302.00;1087839;54;20034;-85
2023/05/25 16:57:53;;;;;;;5.60;3.00;;;;;;;22.90;34.99;100313.88;1087744;54;20058;-87
2023/05/25 17:00:02;;;;;;;6.70;3.95;;;;;;;22.86;35.04;100304.47;1087974;54;19934;-85
2023/05/25 17:04:43;;;;;;;7.13;3.10;;;;;;;22.90;35.09;100305.69;1088013;54;20022;-84
2023/05/25 17:05:52;;;;;;;5.63;3.03;;;;;;;22.90;35.04;100308.44;1087655;46;20022;-85
2023/05/25 17:09:26;;;;;;;7.68;3.35;;;;;;;22.76;35.02;100309.59;1087949;54;20038;-87
2023/05/25 17:11:33;;;;;;;6.00;3.50;;;;;;;22.65;35.29;100313.00;1087822;54;20057;-85
2023/05/25 17:19:34;;;;;;;8.23;3.45;;;;;;;22.82;35.29;100305.97;1069942;54;20034;-88
2023/05/25 17:23:11;;;;;;;7.43;3.00;;;;;;;22.66;35.51;100315.50;1088322;54;20035;-85
2023/05/25 17:25:20;;;;;;;8.15;3.40;;;;;;;22.74;35.56;100311.69;1087497;54;20042;-85
2023/05/25 17:26:21;;;;;;;6.53;3.20;;;;;;;22.69;35.66;100304.16;1087577;47;20154;-87
2023/05/25 17:27:28;;;;;;;5.80;3.50;;;;;;;22.71;35.34;100306.66;1087680;54;20023;-84
2023/05/25 17:28:31;;;;;;;8.48;3.20;;;;;;;22.67;35.57;100297.28;1087547;47;20181;-84
2023/05/25 17:33:37;;;;;;;6.35;3.00;;;;;;;22.64;35.57;100300.44;1085747;54;20035;-84
2023/05/25 17:34:51;;;;;;;7.82;3.47;;;;;;;22.66;35.79;100298.31;1087616;47;20026;-85
2023/05/25 17:39:31;;;;;;;6.00;2.80;;;;;;;22.50;35.76;100305.94;1087671;54;20031;-86
2023/05/25 17:40:35;;;;;;;6.07;3.05;;;;;;;22.48;35.62;100301.75;1087912;46;20038;-86
2023/05/25 17:42:45;;;;;;;5.47;3.15;;;;;;;22.61;35.64;100298.97;1087746;54;20010;-87
2023/05/25 17:43:52;;;;;;;6.18;3.45;;;;;;;22.59;35.42;100303.81;1092420;39;20677;-86
2023/05/25 17:47:26;;;;;;;7.00;3.00;;;;;;;22.75;35.19;100306.00;1085595;54;20010;31
2023/05/25 17:53:29;;;;;;;;;;;;;;;22.62;35.89;100297.94;1067636;54;20877;31
2023/05/25 18:07:54;;;;;;;6.47;3.35;;;;;;;22.40;36.45;100311.00;1087045;39;20799;-83
2023/05/25 18:08:58;;;;;;;5.75;3.38;;;;;;;22.41;36.07;100307.22;1087476;54;20031;-84
2023/05/25 18:12:20;;;;;;;7.25;3.90;;;;;;;22.29;36.61;100316.03;1087462;46;20091;-87
2023/05/25 18:13:27;;;;;;;6.05;3.72;;;;;;;22.32;36.50;100309.34;1087118;54;20038;-86
2023/05/25 18:14:36;;;;;;;7.07;3.65;;;;;;;22.28;36.38;100319.84;1087028;47;20031;-86
2023/05/25 18:15:40;;;;;;;6.65;3.50;;;;;;;22.24;36.65;100310.44;1087169;54;20038;-85
2023/05/25 18:16:49;;;;;;;6.65;4.03;;;;;;;22.24;36.34;100318.59;1087212;47;20026;-86
2023/05/25 18:18:15;;;;;;;5.78;3.40;;;;;;;22.13;36.55;100317.38;1087231;47;20023;-86
2023/05/25 18:19:39;;;;;;;6.47;3.67;;;;;;;22.27;36.67;100317.31;1087232;54;20057;-87
2023/05/25 18:20:40;;;;;;;7.10;3.38;;;;;;;22.17;36.63;100320.50;1086940;47;20027;-86
2023/05/25 18:21:47;;;;;;;5.35;3.25;;;;;;;22.21;36.93;100316.28;1086920;47;20053;-85
2023/05/25 18:22:48;;;;;;;6.78;3.90;;;;;;;22.25;36.56;100317.53;1087057;47;20046;-86
2023/05/25 18:23:52;;;;;;;5.28;3.15;;;;;;;22.16;36.63;100321.56;1087044;54;20046;-87
2023/05/25 18:25:12;;;;;;;5.90;3.20;;;;;;;22.19;37.00;100325.72;1087431;54;20053;-85
2023/05/25 18:26:13;;;;;;;7.13;2.92;;;;;;;22.15;36.90;100319.88;1087410;47;20055;-86
2023/05/25 18:27:17;;;;;;;5.38;3.38;;;;;;;22.19;37.03;100323.00;1087303;54;20034;-85
2023/05/25 18:28:24;;;;;;;7.47;3.53;;;;;;;22.11;36.99;100329.53;1088056;39;20706;-86
2023/05/25 18:29:27;;;;;;;5.88;3.38;;;;;;;22.09;37.18;100331.66;1087306;54;20846;-85
2023/05/25 18:30:28;;;;;;;8.05;3.47;;;;;;;22.08;37.18;100325.34;1087357;54;20454;-85
2023/05/25 18:31:32;;;;;;;9.07;3.28;;;;;;;22.09;37.37;100332.47;1087381;47;20057;-85
2023/05/25 18:32:36;;;;;;;5.95;3.40;;;;;;;22.08;36.94;100329.97;1087228;47;20049;-85
2023/05/25 18:33:43;;;;;;;6.53;3.60;;;;;;;22.07;37.23;100326.38;1087230;47;20030;-85
2023/05/25 18:34:47;;;;;;;6.82;3.72;;;;;;;22.11;37.05;100330.38;1087354;47;20053;-87
2023/05/25 18:35:54;;;;;;;5.50;3.20;;;;;;;22.09;37.35;100329.75;1087386;39;20836;-85
2023/05/25 18:36:55;;;;;;;7.75;3.75;;;;;;;22.01;37.63;100329.97;1087314;47;20034;-86
2023/05/25 18:38:24;;;;;;;5.75;3.45;;;;;;;22.06;37.68;100324.72;1087328;47;20120;-84
2023/05/25 18:39:28;;;;;;;5.75;3.08;;;;;;;22.03;37.60;100324.31;1087368;46;20034;-85
2023/05/25 18:40:39;;;;;;;5.30;3.20;;;;;;;21.96;38.00;100319.72;1087467;47;20042;-85
2023/05/25 18:41:46;;;;;;;9.30;4.25;;;;;;;21.95;37.89;100325.41;1087318;47;20061;-85
2023/05/25 18:42:50;;;;;;;6.63;3.38;;;;;;;21.91;38.02;100335.88;1087336;46;20034;-86
2023/05/25 18:44:10;;;;;;;7.13;3.67;;;;;;;21.90;38.26;100333.34;1087440;54;20034;-85
2023/05/25 18:45:14;;;;;;;11.98;3.28;;;;;;;21.91;37.86;100319.56;1087269;54;20035;-83
2023/05/25 18:46:15;;;;;;;6.95;3.25;;;;;;;21.92;38.22;100325.81;1087543;54;20030;-84
2023/05/25 18:47:22;;;;;;;6.78;3.78;;;;;;;21.91;38.01;100327.72;1087361;47;20150;-85
2023/05/25 18:48:52;;;;;;;5.85;3.15;;;;;;;21.91;38.29;100330.44;1087270;47;20026;-86
2023/05/25 18:49:54;;;;;;;6.03;3.17;;;;;;;21.86;38.40;100335.66;1087536;54;20038;-87
2023/05/25 18:51:04;;;;;;;6.15;3.67;;;;;;;21.85;38.08;100330.44;1087567;46;20026;-84
2023/05/25 18:52:18;;;;;;;7.75;3.78;;;;;;;21.85;38.07;100325.81;1087523;47;20038;-86
2023/05/25 18:53:20;;;;;;;6.88;3.95;;;;;;;21.81;38.36;100330.84;1087445;54;20034;-85
2023/05/25 18:54:23;;;;;;;6.97;3.97;;;;;;;21.80;38.19;100325.63;1087318;47;20026;-86
2023/05/25 18:55:27;;;;;;;6.28;4.05;;;;;;;21.79;38.30;100332.94;1087636;46;20038;-85
2023/05/25 18:56:37;;;;;;;7.40;3.67;;;;;;;21.90;38.07;100336.06;1087675;46;20046;-84
2023/05/25 18:57:41;;;;;;;5.68;3.15;;;;;;;21.92;38.22;100329.34;1087476;51;20026;-85
2023/05/25 18:58:45;;;;;;;7.57;3.67;;;;;;;21.91;38.22;100335.88;1087647;46;20055;-87
2023/05/25 18:59:47;;;;;;;6.97;3.17;;;;;;;21.86;38.41;100332.13;1087519;46;20059;-85
2023/05/25 19:00:54;;;;;;;5.85;3.33;;;;;;;21.77;38.29;100332.31;1087415;47;20031;-86
2023/05/25 19:01:55;;;;;;;6.35;3.70;;;;;;;21.78;38.36;100330.44;1090619;39;20243;-86
2023/05/25 19:03:08;;;;;;;7.70;3.60;;;;;;;21.72;37.70;100332.13;1087356;47;20026;-86
2023/05/25 19:04:09;;;;;;;5.72;3.40;;;;;;;21.66;37.83;100339.25;1087825;54;20030;-87
2023/05/25 19:05:14;;;;;;;8.20;3.60;;;;;;;21.60;38.14;100339.25;1087481;47;20069;-86
2023/05/25 19:06:21;;;;;;;6.00;3.67;;;;;;;21.63;37.87;100333.41;1087538;54;20027;-87
2023/05/25 19:07:34;;;;;;;5.75;3.42;;;;;;;21.65;37.66;100343.00;1087352;46;20018;-85
2023/05/25 19:08:35;;;;;;;5.22;3.20;;;;;;;21.71;37.48;100341.34;1087243;54;20859;-86
2023/05/25 19:09:39;;;;;;;7.93;3.55;;;;;;;21.69;37.71;100339.88;1088771;39;20783;-88
2023/05/25 19:10:40;;;;;;;7.80;3.63;;;;;;;21.53;37.94;100341.97;1087460;54;20090;-86
2023/05/25 19:11:54;;;;;;;7.05;3.92;;;;;;;21.52;37.74;100340.28;1087674;46;20035;-87
2023/05/25 19:12:55;;;;;;;6.00;3.80;;;;;;;21.56;37.59;100343.41;1087352;46;20039;-85
2023/05/25 19:13:59;;;;;;;8.38;3.60;;;;;;;21.51;37.70;100338.63;1087513;47;20030;-83
2023/05/25 19:15:00;;;;;;;6.43;3.65;;;;;;;21.52;37.48;100343.00;1087580;46;20054;-85
2023/05/25 19:16:04;;;;;;;6.03;3.47;;;;;;;21.50;37.71;100345.91;1087538;47;20022;-85
2023/05/25 19:17:07;;;;;;;7.25;3.63;;;;;;;21.41;37.77;100336.31;1087645;54;20058;-86
2023/05/25 19:18:13;;;;;;;6.72;3.92;;;;;;;21.43;37.54;100345.09;1087787;54;20031;-86
2023/05/25 19:19:16;;;;;;;6.95;3.90;;;;;;;21.42;37.82;100343.41;1087643;47;20053;-86
2023/05/25 19:21:57;;;;;;;6.45;3.85;;;;;;;21.48;37.47;100347.19;1087348;47;20027;-85
2023/05/25 19:23:15;;;;;;;6.47;3.75;;;;;;;21.47;37.34;100345.50;1087977;46;20037;-87
2023/05/25 19:24:28;;;;;;;6.15;3.88;;;;;;;21.47;37.54;100351.81;1087692;46;20090;-87
2023/05/25 19:25:38;;;;;;;6.50;3.53;;;;;;;21.57;37.64;100351.34;1087429;47;20023;-86
2023/05/25 19:26:39;;;;;;;8.00;3.80;;;;;;;21.42;37.67;100348.03;1087780;54;20042;-87
2023/05/25 19:27:50;;;;;;;6.75;3.35;;;;;;;21.46;37.56;100350.13;1087765;46;20030;-85
2023/05/25 19:30:41;;;;;;;5.85;3.42;;;;;;;21.41;37.38;100352.63;1087522;54;20038;-86
2023/05/25 19:31:54;;;;;;;5.85;3.00;;;;;;;21.42;37.71;100356.19;1087520;54;20042;-85
2023/05/25 19:33:07;;;;;;;5.05;2.92;;;;;;;21.44;37.60;100357.66;1087693;47;20098;-87
2023/05/25 19:34:21;;;;;;;6.75;3.03;;;;;;;21.37;37.40;100355.97;1087586;46;20045;-86
2023/05/25 19:35:42;;;;;;;6.93;3.63;;;;;;;21.34;37.49;100359.94;1087683;54;20030;-85
2023/05/25 19:36:43;;;;;;;5.32;3.22;;;;;;;21.22;37.84;100353.44;1087622;47;20026;-86
2023/05/25 19:37:49;;;;;;;5.00;2.78;;;;;;;21.25;37.69;100356.59;1087539;47;20030;-87
2023/05/25 19:38:56;;;;;;;6.45;3.65;;;;;;;21.26;37.59;100358.25;1087528;47;20035;-86
2023/05/25 19:40:00;;;;;;;6.95;3.35;;;;;;;21.22;37.55;100359.72;1090090;39;20172;-86
2023/05/25 19:41:05;;;;;;;6.40;3.72;;;;;;;21.26;37.70;100360.97;1087592;47;20346;-84
2023/05/25 19:42:20;;;;;;;7.75;3.42;;;;;;;21.35;37.72;100367.06;1091860;39;20741;-86
2023/05/25 19:44:10;;;;;;;5.22;3.00;;;;;;;21.32;37.83;100376.47;1087644;47;20055;-86
2023/05/25 19:47:26;;;;;;;6.07;3.33;;;;;;;21.28;37.74;100377.09;1087383;47;20078;-86
2023/05/25 19:49:02;;;;;;;6.18;3.45;;;;;;;21.28;37.92;100375.19;1087630;46;20042;-86
2023/05/25 19:50:29;;;;;;;6.28;2.80;;;;;;;21.27;38.24;100372.69;1087381;47;20030;-85
2023/05/25 19:52:06;;;;;;;4.88;2.88;;;;;;;21.31;38.29;100368.50;1087339;47;20877;-86
2023/05/25 19:53:20;;;;;;;5.55;3.13;;;;;;;21.26;38.50;100368.31;1087530;46;20059;-85
2023/05/25 19:54:22;;;;;;;7.40;3.72;;;;;;;21.08;38.68;100374.31;1087564;47;20164;-83
2023/05/25 19:55:37;;;;;;;8.98;4.15;;;;;;;21.14;39.07;100373.53;1087596;47;20011;-86
2023/05/25 19:56:41;;;;;;;5.30;3.00;;;;;;;21.12;38.82;100378.31;1087425;47;20022;-87
2023/05/25 19:57:55;;;;;;;7.30;3.80;;;;;;;21.02;39.00;100374.13;1087508;46;20030;-86
2023/05/25 19:59:00;;;;;;;7.38;3.55;;;;;;;20.99;39.02;100379.13;1087658;54;20033;-86
2023/05/25 20:00:04;;;;;;;5.40;3.42;;;;;;;21.05;39.24;100378.31;1087551;47;20033;-83
2023/05/25 20:01:28;;;;;;;5.63;3.40;;;;;;;21.09;39.23;100374.16;1087493;54;20027;-86
2023/05/25 20:02:32;;;;;;;5.80;3.17;;;;;;;21.08;39.00;100377.91;1087306;47;20030;-84
2023/05/25 20:03:34;;;;;;;7.60;3.40;;;;;;;21.13;38.98;100382.72;1087523;47;20031;-87
2023/05/25 20:04:39;;;;;;;5.63;3.05;;;;;;;21.12;38.97;100386.47;1087456;47;20110;-84
2023/05/25 20:05:41;;;;;;;5.47;3.45;;;;;;;21.09;39.04;100389.59;1087540;54;20845;-85
2023/05/25 20:06:44;;;;;;;6.57;4.05;;;;;;;20.94;39.12;100390.63;1087335;47;20026;-87
2023/05/25 20:07:51;;;;;;;5.75;3.72;;;;;;;20.99;39.25;100384.56;1087374;47;20034;-86
2023/05/25 20:09:12;;;;;;;;;;;;;;;;;;;;;
2023/05/25 20:10:17;;;;;;;8.45;3.53;;;;;;;20.84;39.40;100390.16;1086885;47;20054;-86
2023/05/25 20:11:21;;;;;;;6.25;3.42;;;;;;;20.82;39.09;100390.38;1087440;54;20030;-86
2023/05/25 20:12:33;;;;;;;5.18;3.08;;;;;;;20.76;39.17;100390.34;1087442;46;20058;-86
2023/05/25 20:13:35;;;;;;;5.85;3.35;;;;;;;20.79;39.24;100385.34;1087650;54;20026;-87
2023/05/25 20:14:42;;;;;;;6.32;3.50;;;;;;;20.83;38.95;100391.22;1087459;47;20042;-85
2023/05/25 20:15:58;;;;;;;4.40;2.92;;;;;;;20.85;38.97;100394.56;1087528;47;20030;-86
2023/05/25 20:17:03;;;;;;;6.30;3.05;;;;;;;20.88;38.89;100385.97;1087514;47;20057;-86
2023/05/25 20:18:07;;;;;;;4.82;2.83;;;;;;;20.93;39.28;100388.94;1087676;47;20030;-86
2023/05/25 20:19:09;;;;;;;4.82;2.78;;;;;;;20.95;39.17;100389.56;1087410;47;20034;-87
2023/05/25 20:20:15;;;;;;;5.68;3.25;;;;;;;20.93;38.89;100378.06;1087625;47;20033;-86
2023/05/25 20:21:18;;;;;;;5.47;3.13;;;;;;;20.93;38.73;100386.22;1087733;47;20034;-85
2023/05/25 20:22:22;;;;;;;5.55;3.03;;;;;;;20.95;38.91;100388.72;1087611;47;20118;-87
2023/05/25 20:23:23;;;;;;;6.88;3.10;;;;;;;20.85;39.43;100387.25;1087538;47;20023;-85
2023/05/25 20:24:27;;;;;;;6.78;3.35;;;;;;;20.80;39.66;100389.75;1087484;47;20026;-85
2023/05/25 20:25:28;;;;;;;6.28;3.10;;;;;;;20.78;39.75;100391.81;1087545;47;20027;-86
2023/05/25 20:26:32;;;;;;;4.75;2.95;;;;;;;20.76;39.87;100387.63;1090456;39;20321;-85
2023/05/25 20:27:34;;;;;;;5.47;3.05;;;;;;;20.75;39.65;100391.41;1087499;47;21081;-85
2023/05/25 20:28:37;;;;;;;6.25;3.30;;;;;;;20.80;39.67;100394.31;1087550;47;20030;-86
2023/05/25 20:29:39;;;;;;;6.22;3.10;;;;;;;20.76;39.53;100393.91;1087474;47;20029;-85
2023/05/25 20:30:42;;;;;;;5.40;2.90;;;;;;;20.80;39.71;100384.31;1087543;54;20031;-85
2023/05/25 20:31:44;;;;;;;6.63;3.10;;;;;;;20.82;39.77;100395.81;1087414;47;20026;-86
2023/05/25 20:32:50;;;;;;;5.72;3.13;;;;;;;20.77;39.64;100394.75;1087511;47;20111;-86